Погода Гентисбааина неделю

Эронго, Намибия

28 февраля-05 марта
  • 28февраля
    Сегодня
    +16°
    +23°
    Небольшая облачность
    ВремяПогодаТемператураВлажностьДавлениеВетер, м/сВероятность осадков
    02:00Ясно и безоблачно+16°C93 %756 мм2.2 м/с5 %
    05:00Облачно с прояснениями+15°C95 %756 мм1.0 м/с5 %
    08:00Небольшая облачность+15°C89 %757 мм1.2 м/с4 %
    11:00Небольшая облачность+21°C74 %757 мм3.4 м/с3 %
    14:00Небольшая облачность+21°C72 %756 мм6.1 м/с5 %
    17:00Облачно с прояснениями+21°C78 %755 мм5.8 м/с2 %
    20:00Небольшая облачность+19°C87 %756 мм4.4 м/с2 %
    23:00Небольшая облачность+18°C90 %757 мм3.4 м/с3 %
  • 29февраля
    Четверг
    +16°
    +24°
    Практически безоблачно
    ВремяПогодаТемператураВлажностьДавлениеВетер, м/сВероятность осадков
    02:00Облачно с прояснениями+18°C93 %757 мм1.7 м/с4 %
    05:00Облачно с прояснениями+19°C92 %756 мм2.6 м/с8 %
    08:00Облачно с прояснениями+16°C92 %756 мм0.8 м/с9 %
    11:00Практически безоблачно+22°C75 %757 мм3.7 м/с9 %
    14:00Практически безоблачно+23°C69 %755 мм6.0 м/с5 %
    17:00Небольшая облачность+22°C75 %754 мм6.4 м/с6 %
    20:00Ясно и безоблачно+19°C84 %755 мм4.4 м/с12 %
    23:00Ясно и безоблачно+19°C87 %757 мм3.1 м/с16 %
  • 01марта
    Пятница
    +16°
    +22°
    Облачно с прояснениями
    ВремяПогодаТемператураВлажностьДавлениеВетер, м/сВероятность осадков
    02:00Ясно и безоблачно+17°C89 %755 мм1.8 м/с15 %
    05:00Ясно и безоблачно+17°C94 %755 мм2.2 м/с17 %
    08:00Ясно и безоблачно+17°C90 %756 мм1.7 м/с26 %
    11:00Практически безоблачно+22°C74 %757 мм4.7 м/с13 %
    14:00Облачно с прояснениями+21°C74 %755 мм6.1 м/с4 %
    17:00Ясно и безоблачно+21°C75 %755 мм5.8 м/с5 %
    20:00Облачно с прояснениями+19°C86 %757 мм2.8 м/с9 %
    23:00Ясно и безоблачно+19°C87 %758 мм2.0 м/с11 %
  • 02марта
    Суббота
    +15°
    +24°
    Ясно и безоблачно
    ВремяПогодаТемператураВлажностьДавлениеВетер, м/сВероятность осадков
    02:00Небольшая облачность+17°C93 %757 мм2.4 м/с10 %
    05:00Пасмурно, сплошная облачность+18°C94 %756 мм3.0 м/с17 %
    08:00Облачно с прояснениями+16°C91 %757 мм2.6 м/с18 %
    11:00Практически безоблачно+21°C75 %757 мм3.8 м/с8 %
    14:00Ясно и безоблачно+23°C70 %756 мм6.7 м/с5 %
    17:00Облачно с прояснениями+21°C77 %756 мм7.6 м/с5 %
    20:00Ясно и безоблачно+18°C82 %757 мм3.1 м/с10 %
    23:00Ясно и безоблачно+18°C88 %758 мм2.6 м/с5 %
  • 03марта
    Воскресенье
    +16°
    +22°
    Небольшая облачность
    ВремяПогодаТемператураВлажностьДавлениеВетер, м/сВероятность осадков
    02:00Ясно и безоблачно+17°C93 %757 мм1.2 м/с4 %
    05:00Ясно и безоблачно+16°C93 %756 мм0.8 м/с5 %
    08:00Облачно с прояснениями+17°C91 %757 мм3.2 м/с5 %
    11:00Практически безоблачно+20°C77 %758 мм5.4 м/с5 %
    14:00Небольшая облачность+20°C72 %757 мм6.6 м/с7 %
    17:00Облачно с прояснениями+20°C77 %756 мм6.4 м/с15 %
    20:00Ясно и безоблачно+18°C82 %757 мм4.4 м/с14 %
    23:00Ясно и безоблачно+17°C87 %758 мм2.1 м/с5 %
Мы используем cookies
Соглашаюсь